sensor_id;sensor_type;location;lat;lon;timestamp;P1;durP1;ratioP1;P2;durP2;ratioP2
10711;SDS011;5407;51.234;6.804;2022-11-20T00:00:38;4.77;;;3.77;;
10711;SDS011;5407;51.234;6.804;2022-11-20T00:03:05;3.90;;;3.50;;
10711;SDS011;5407;51.234;6.804;2022-11-20T00:05:33;3.80;;;3.47;;
10711;SDS011;5407;51.234;6.804;2022-11-20T00:08:01;3.40;;;3.10;;
10711;SDS011;5407;51.234;6.804;2022-11-20T00:10:28;4.07;;;3.67;;
10711;SDS011;5407;51.234;6.804;2022-11-20T00:12:55;3.80;;;3.43;;
10711;SDS011;5407;51.234;6.804;2022-11-20T00:15:24;4.17;;;3.63;;
10711;SDS011;5407;51.234;6.804;2022-11-20T00:17:51;4.30;;;3.57;;
10711;SDS011;5407;51.234;6.804;2022-11-20T00:20:17;3.80;;;3.40;;
10711;SDS011;5407;51.234;6.804;2022-11-20T00:22:46;3.73;;;3.27;;
10711;SDS011;5407;51.234;6.804;2022-11-20T00:25:13;3.93;;;3.53;;
10711;SDS011;5407;51.234;6.804;2022-11-20T00:27:39;4.17;;;3.70;;
10711;SDS011;5407;51.234;6.804;2022-11-20T00:30:07;3.77;;;3.37;;
10711;SDS011;5407;51.234;6.804;2022-11-20T00:32:34;3.80;;;3.40;;
10711;SDS011;5407;51.234;6.804;2022-11-20T00:35:01;3.83;;;3.40;;
10711;SDS011;5407;51.234;6.804;2022-11-20T00:37:28;3.93;;;3.53;;
10711;SDS011;5407;51.234;6.804;2022-11-20T00:39:56;4.17;;;3.40;;
10711;SDS011;5407;51.234;6.804;2022-11-20T00:42:23;5.47;;;3.60;;
10711;SDS011;5407;51.234;6.804;2022-11-20T00:44:50;3.53;;;3.07;;
10711;SDS011;5407;51.234;6.804;2022-11-20T00:47:17;3.93;;;3.37;;
10711;SDS011;5407;51.234;6.804;2022-11-20T00:49:44;4.23;;;3.80;;
10711;SDS011;5407;51.234;6.804;2022-11-20T00:52:10;3.37;;;3.07;;
10711;SDS011;5407;51.234;6.804;2022-11-20T00:54:37;5.40;;;3.70;;
10711;SDS011;5407;51.234;6.804;2022-11-20T00:57:05;3.80;;;3.50;;
10711;SDS011;5407;51.234;6.804;2022-11-20T00:59:32;5.00;;;3.90;;
10711;SDS011;5407;51.234;6.804;2022-11-20T01:01:59;3.60;;;3.30;;
10711;SDS011;5407;51.234;6.804;2022-11-20T01:04:26;4.10;;;3.60;;
10711;SDS011;5407;51.234;6.804;2022-11-20T01:06:53;4.27;;;3.70;;
10711;SDS011;5407;51.234;6.804;2022-11-20T01:09:19;4.17;;;3.70;;
10711;SDS011;5407;51.234;6.804;2022-11-20T01:11:46;4.20;;;3.80;;
10711;SDS011;5407;51.234;6.804;2022-11-20T01:14:15;4.03;;;3.63;;
10711;SDS011;5407;51.234;6.804;2022-11-20T01:16:45;4.13;;;3.73;;
10711;SDS011;5407;51.234;6.804;2022-11-20T01:19:14;4.57;;;3.63;;
10711;SDS011;5407;51.234;6.804;2022-11-20T01:21:42;4.03;;;3.63;;
10711;SDS011;5407;51.234;6.804;2022-11-20T01:24:11;4.47;;;3.70;;
10711;SDS011;5407;51.234;6.804;2022-11-20T01:26:40;3.90;;;3.50;;
10711;SDS011;5407;51.234;6.804;2022-11-20T01:29:10;3.90;;;3.30;;
10711;SDS011;5407;51.234;6.804;2022-11-20T01:31:42;4.23;;;3.77;;
10711;SDS011;5407;51.234;6.804;2022-11-20T01:34:11;3.70;;;3.40;;
10711;SDS011;5407;51.234;6.804;2022-11-20T01:36:41;4.17;;;3.50;;
10711;SDS011;5407;51.234;6.804;2022-11-20T01:39:10;4.67;;;3.60;;
10711;SDS011;5407;51.234;6.804;2022-11-20T01:41:38;6.03;;;3.40;;
10711;SDS011;5407;51.234;6.804;2022-11-20T01:47:31;3.97;;;3.58;;
10711;SDS011;5407;51.234;6.804;2022-11-20T01:50:03;4.77;;;3.70;;
10711;SDS011;5407;51.234;6.804;2022-11-20T01:52:33;3.97;;;3.50;;
10711;SDS011;5407;51.234;6.804;2022-11-20T01:55:04;4.87;;;3.90;;
10711;SDS011;5407;51.234;6.804;2022-11-20T01:57:34;6.33;;;4.20;;
10711;SDS011;5407;51.234;6.804;2022-11-20T02:00:05;6.03;;;4.13;;
10711;SDS011;5407;51.234;6.804;2022-11-20T02:02:44;3.73;;;3.40;;
10711;SDS011;5407;51.234;6.804;2022-11-20T02:05:17;4.10;;;3.70;;
10711;SDS011;5407;51.234;6.804;2022-11-20T02:07:49;4.13;;;3.50;;
10711;SDS011;5407;51.234;6.804;2022-11-20T02:10:17;5.03;;;3.60;;
10711;SDS011;5407;51.234;6.804;2022-11-20T02:12:44;4.10;;;3.70;;
10711;SDS011;5407;51.234;6.804;2022-11-20T02:15:33;4.47;;;3.50;;
10711;SDS011;5407;51.234;6.804;2022-11-20T02:18:02;4.87;;;3.63;;
10711;SDS011;5407;51.234;6.804;2022-11-20T02:20:29;5.63;;;3.70;;
10711;SDS011;5407;51.234;6.804;2022-11-20T02:22:57;4.67;;;3.60;;
10711;SDS011;5407;51.234;6.804;2022-11-20T02:25:28;4.03;;;3.37;;
10711;SDS011;5407;51.234;6.804;2022-11-20T02:27:58;4.00;;;3.60;;
10711;SDS011;5407;51.234;6.804;2022-11-20T02:30:25;5.07;;;3.90;;
10711;SDS011;5407;51.234;6.804;2022-11-20T02:32:52;5.37;;;3.77;;
10711;SDS011;5407;51.234;6.804;2022-11-20T02:38:10;3.30;;;3.00;;
10711;SDS011;5407;51.234;6.804;2022-11-20T02:40:39;4.13;;;3.70;;
10711;SDS011;5407;51.234;6.804;2022-11-20T02:43:06;4.17;;;3.77;;
10711;SDS011;5407;51.234;6.804;2022-11-20T02:45:34;3.50;;;3.20;;
10711;SDS011;5407;51.234;6.804;2022-11-20T02:48:01;4.00;;;3.60;;
10711;SDS011;5407;51.234;6.804;2022-11-20T02:50:28;4.63;;;3.70;;
10711;SDS011;5407;51.234;6.804;2022-11-20T02:52:55;4.40;;;3.33;;
10711;SDS011;5407;51.234;6.804;2022-11-20T02:55:22;4.33;;;3.50;;
10711;SDS011;5407;51.234;6.804;2022-11-20T02:57:50;4.00;;;3.23;;
10711;SDS011;5407;51.234;6.804;2022-11-20T03:00:18;3.70;;;3.37;;
10711;SDS011;5407;51.234;6.804;2022-11-20T03:02:45;3.87;;;3.47;;
10711;SDS011;5407;51.234;6.804;2022-11-20T03:05:11;3.63;;;3.20;;
10711;SDS011;5407;51.234;6.804;2022-11-20T03:07:38;3.83;;;3.43;;
10711;SDS011;5407;51.234;6.804;2022-11-20T03:10:06;3.87;;;3.47;;
10711;SDS011;5407;51.234;6.804;2022-11-20T03:12:33;4.10;;;3.70;;
10711;SDS011;5407;51.234;6.804;2022-11-20T03:15:01;3.93;;;3.53;;
10711;SDS011;5407;51.234;6.804;2022-11-20T03:17:28;4.40;;;4.00;;
10711;SDS011;5407;51.234;6.804;2022-11-20T03:19:56;5.60;;;3.63;;
10711;SDS011;5407;51.234;6.804;2022-11-20T03:22:22;3.75;;;3.40;;
10711;SDS011;5407;51.234;6.804;2022-11-20T03:24:49;4.20;;;3.80;;
10711;SDS011;5407;51.234;6.804;2022-11-20T03:27:17;3.90;;;3.60;;
10711;SDS011;5407;51.234;6.804;2022-11-20T03:29:44;5.10;;;4.00;;
10711;SDS011;5407;51.234;6.804;2022-11-20T03:32:12;4.28;;;3.58;;
10711;SDS011;5407;51.234;6.804;2022-11-20T03:34:39;3.97;;;3.67;;
10711;SDS011;5407;51.234;6.804;2022-11-20T03:37:06;3.90;;;3.50;;
10711;SDS011;5407;51.234;6.804;2022-11-20T03:39:33;5.63;;;3.47;;
10711;SDS011;5407;51.234;6.804;2022-11-20T03:42:00;4.17;;;3.77;;
10711;SDS011;5407;51.234;6.804;2022-11-20T03:44:27;4.37;;;3.97;;
10711;SDS011;5407;51.234;6.804;2022-11-20T03:46:53;3.77;;;3.47;;
10711;SDS011;5407;51.234;6.804;2022-11-20T03:49:22;4.00;;;3.60;;
10711;SDS011;5407;51.234;6.804;2022-11-20T03:51:49;4.17;;;3.50;;
10711;SDS011;5407;51.234;6.804;2022-11-20T03:54:15;4.47;;;3.70;;
10711;SDS011;5407;51.234;6.804;2022-11-20T03:56:42;3.80;;;3.40;;
10711;SDS011;5407;51.234;6.804;2022-11-20T03:59:09;4.03;;;3.70;;
10711;SDS011;5407;51.234;6.804;2022-11-20T04:01:37;4.10;;;3.70;;
10711;SDS011;5407;51.234;6.804;2022-11-20T04:04:04;4.07;;;3.67;;
10711;SDS011;5407;51.234;6.804;2022-11-20T04:06:35;3.50;;;3.20;;
10711;SDS011;5407;51.234;6.804;2022-11-20T04:09:04;3.67;;;3.37;;
10711;SDS011;5407;51.234;6.804;2022-11-20T04:11:32;3.90;;;3.50;;
10711;SDS011;5407;51.234;6.804;2022-11-20T04:14:00;3.70;;;3.40;;
10711;SDS011;5407;51.234;6.804;2022-11-20T04:16:29;6.07;;;3.93;;
10711;SDS011;5407;51.234;6.804;2022-11-20T04:18:58;4.43;;;3.60;;
10711;SDS011;5407;51.234;6.804;2022-11-20T04:21:26;3.60;;;3.30;;
10711;SDS011;5407;51.234;6.804;2022-11-20T04:23:55;5.50;;;3.43;;
10711;SDS011;5407;51.234;6.804;2022-11-20T04:26:23;4.33;;;3.77;;
10711;SDS011;5407;51.234;6.804;2022-11-20T04:28:52;4.37;;;3.87;;
10711;SDS011;5407;51.234;6.804;2022-11-20T04:31:20;3.80;;;3.50;;
10711;SDS011;5407;51.234;6.804;2022-11-20T04:33:48;4.10;;;3.70;;
10711;SDS011;5407;51.234;6.804;2022-11-20T04:36:16;4.27;;;3.87;;
10711;SDS011;5407;51.234;6.804;2022-11-20T04:38:45;3.90;;;3.50;;
10711;SDS011;5407;51.234;6.804;2022-11-20T04:41:15;3.60;;;3.30;;
10711;SDS011;5407;51.234;6.804;2022-11-20T04:43:45;3.93;;;3.57;;
10711;SDS011;5407;51.234;6.804;2022-11-20T04:46:14;4.27;;;3.80;;
10711;SDS011;5407;51.234;6.804;2022-11-20T04:48:41;5.20;;;3.20;;
10711;SDS011;5407;51.234;6.804;2022-11-20T04:51:08;3.53;;;3.20;;
10711;SDS011;5407;51.234;6.804;2022-11-20T04:53:35;3.93;;;3.40;;
10711;SDS011;5407;51.234;6.804;2022-11-20T04:56:02;3.60;;;3.30;;
10711;SDS011;5407;51.234;6.804;2022-11-20T04:58:32;3.90;;;3.53;;
10711;SDS011;5407;51.234;6.804;2022-11-20T05:01:00;3.60;;;2.97;;
10711;SDS011;5407;51.234;6.804;2022-11-20T05:03:29;4.15;;;3.50;;
10711;SDS011;5407;51.234;6.804;2022-11-20T05:05:56;3.83;;;3.53;;
10711;SDS011;5407;51.234;6.804;2022-11-20T05:08:26;5.13;;;3.67;;
10711;SDS011;5407;51.234;6.804;2022-11-20T05:10:52;4.13;;;3.73;;
10711;SDS011;5407;51.234;6.804;2022-11-20T05:13:19;6.73;;;3.40;;
10711;SDS011;5407;51.234;6.804;2022-11-20T05:15:47;4.03;;;3.20;;
10711;SDS011;5407;51.234;6.804;2022-11-20T05:18:14;3.53;;;3.10;;
10711;SDS011;5407;51.234;6.804;2022-11-20T05:20:41;3.70;;;3.30;;
10711;SDS011;5407;51.234;6.804;2022-11-20T05:23:08;3.73;;;3.43;;
10711;SDS011;5407;51.234;6.804;2022-11-20T05:25:34;3.47;;;3.15;;
10711;SDS011;5407;51.234;6.804;2022-11-20T05:28:01;4.23;;;3.53;;
10711;SDS011;5407;51.234;6.804;2022-11-20T05:30:28;5.93;;;3.53;;
10711;SDS011;5407;51.234;6.804;2022-11-20T05:32:57;3.50;;;3.20;;
10711;SDS011;5407;51.234;6.804;2022-11-20T05:35:23;3.27;;;2.97;;
10711;SDS011;5407;51.234;6.804;2022-11-20T05:37:50;4.50;;;3.60;;
10711;SDS011;5407;51.234;6.804;2022-11-20T05:40:17;3.43;;;3.13;;
10711;SDS011;5407;51.234;6.804;2022-11-20T05:42:44;3.60;;;3.30;;
10711;SDS011;5407;51.234;6.804;2022-11-20T05:45:11;3.93;;;3.53;;
10711;SDS011;5407;51.234;6.804;2022-11-20T05:47:37;3.60;;;3.30;;
10711;SDS011;5407;51.234;6.804;2022-11-20T05:50:06;3.67;;;3.37;;
10711;SDS011;5407;51.234;6.804;2022-11-20T05:52:33;3.90;;;3.42;;
10711;SDS011;5407;51.234;6.804;2022-11-20T05:55:00;3.73;;;3.33;;
10711;SDS011;5407;51.234;6.804;2022-11-20T05:57:27;6.20;;;3.13;;
10711;SDS011;5407;51.234;6.804;2022-11-20T05:59:54;3.73;;;3.43;;
10711;SDS011;5407;51.234;6.804;2022-11-20T06:02:21;3.53;;;3.23;;
10711;SDS011;5407;51.234;6.804;2022-11-20T06:04:47;3.60;;;3.30;;
10711;SDS011;5407;51.234;6.804;2022-11-20T06:07:16;3.50;;;3.20;;
10711;SDS011;5407;51.234;6.804;2022-11-20T06:09:43;2.90;;;2.70;;
10711;SDS011;5407;51.234;6.804;2022-11-20T06:12:09;4.73;;;3.17;;
10711;SDS011;5407;51.234;6.804;2022-11-20T06:14:36;3.40;;;3.00;;
10711;SDS011;5407;51.234;6.804;2022-11-20T06:17:03;4.13;;;3.10;;
10711;SDS011;5407;51.234;6.804;2022-11-20T06:19:30;5.03;;;3.35;;
10711;SDS011;5407;51.234;6.804;2022-11-20T06:21:57;3.58;;;3.28;;
10711;SDS011;5407;51.234;6.804;2022-11-20T06:24:25;3.47;;;3.17;;
10711;SDS011;5407;51.234;6.804;2022-11-20T06:26:52;3.90;;;3.47;;
10711;SDS011;5407;51.234;6.804;2022-11-20T06:29:19;3.70;;;3.30;;
10711;SDS011;5407;51.234;6.804;2022-11-20T06:31:45;4.30;;;3.50;;
10711;SDS011;5407;51.234;6.804;2022-11-20T06:34:12;3.40;;;3.10;;
10711;SDS011;5407;51.234;6.804;2022-11-20T06:36:39;3.40;;;3.10;;
10711;SDS011;5407;51.234;6.804;2022-11-20T06:39:06;3.57;;;3.20;;
10711;SDS011;5407;51.234;6.804;2022-11-20T06:41:34;3.40;;;3.10;;
10711;SDS011;5407;51.234;6.804;2022-11-20T06:44:01;3.50;;;3.20;;
10711;SDS011;5407;51.234;6.804;2022-11-20T06:46:30;5.13;;;3.30;;
10711;SDS011;5407;51.234;6.804;2022-11-20T06:48:57;5.23;;;3.07;;
10711;SDS011;5407;51.234;6.804;2022-11-20T06:51:24;3.40;;;3.10;;
10711;SDS011;5407;51.234;6.804;2022-11-20T06:53:51;3.40;;;3.10;;
10711;SDS011;5407;51.234;6.804;2022-11-20T06:56:19;3.33;;;3.03;;
10711;SDS011;5407;51.234;6.804;2022-11-20T06:58:47;3.20;;;2.90;;
10711;SDS011;5407;51.234;6.804;2022-11-20T07:01:14;3.47;;;3.17;;
10711;SDS011;5407;51.234;6.804;2022-11-20T07:03:41;3.87;;;3.53;;
10711;SDS011;5407;51.234;6.804;2022-11-20T07:06:08;3.97;;;3.30;;
10711;SDS011;5407;51.234;6.804;2022-11-20T07:08:35;5.73;;;3.40;;
10711;SDS011;5407;51.234;6.804;2022-11-20T07:11:04;4.80;;;3.40;;
10711;SDS011;5407;51.234;6.804;2022-11-20T07:13:32;3.87;;;3.57;;
10711;SDS011;5407;51.234;6.804;2022-11-20T07:16:00;3.57;;;3.27;;
10711;SDS011;5407;51.234;6.804;2022-11-20T07:18:28;3.60;;;3.30;;
10711;SDS011;5407;51.234;6.804;2022-11-20T07:20:55;3.77;;;3.33;;
10711;SDS011;5407;51.234;6.804;2022-11-20T07:23:22;3.47;;;3.17;;
10711;SDS011;5407;51.234;6.804;2022-11-20T07:25:49;3.67;;;3.38;;
10711;SDS011;5407;51.234;6.804;2022-11-20T07:28:16;3.97;;;3.20;;
10711;SDS011;5407;51.234;6.804;2022-11-20T07:30:43;3.67;;;3.30;;
10711;SDS011;5407;51.234;6.804;2022-11-20T07:33:18;3.43;;;3.13;;
10711;SDS011;5407;51.234;6.804;2022-11-20T07:35:45;3.63;;;3.00;;
10711;SDS011;5407;51.234;6.804;2022-11-20T07:38:12;4.33;;;3.50;;
10711;SDS011;5407;51.234;6.804;2022-11-20T07:40:39;3.90;;;3.20;;
10711;SDS011;5407;51.234;6.804;2022-11-20T07:43:05;3.53;;;3.23;;
10711;SDS011;5407;51.234;6.804;2022-11-20T07:45:32;4.20;;;3.20;;
10711;SDS011;5407;51.234;6.804;2022-11-20T07:47:59;9.07;;;3.83;;
10711;SDS011;5407;51.234;6.804;2022-11-20T07:50:27;5.03;;;3.23;;
10711;SDS011;5407;51.234;6.804;2022-11-20T07:52:59;5.80;;;3.17;;
10711;SDS011;5407;51.234;6.804;2022-11-20T07:55:27;3.17;;;2.87;;
10711;SDS011;5407;51.234;6.804;2022-11-20T07:57:54;5.73;;;3.33;;
10711;SDS011;5407;51.234;6.804;2022-11-20T08:00:22;4.53;;;3.13;;
10711;SDS011;5407;51.234;6.804;2022-11-20T08:02:49;5.43;;;3.10;;
10711;SDS011;5407;51.234;6.804;2022-11-20T08:05:16;6.73;;;3.30;;
10711;SDS011;5407;51.234;6.804;2022-11-20T08:07:45;4.10;;;3.50;;
10711;SDS011;5407;51.234;6.804;2022-11-20T08:10:12;4.27;;;3.30;;
10711;SDS011;5407;51.234;6.804;2022-11-20T08:12:43;18.77;;;9.67;;
10711;SDS011;5407;51.234;6.804;2022-11-20T08:15:29;11.47;;;6.20;;
10711;SDS011;5407;51.234;6.804;2022-11-20T08:18:03;7.33;;;5.20;;
10711;SDS011;5407;51.234;6.804;2022-11-20T08:20:31;6.95;;;4.70;;
10711;SDS011;5407;51.234;6.804;2022-11-20T08:23:00;7.17;;;5.23;;
10711;SDS011;5407;51.234;6.804;2022-11-20T08:25:27;7.37;;;5.20;;
10711;SDS011;5407;51.234;6.804;2022-11-20T08:27:56;6.83;;;5.10;;
10711;SDS011;5407;51.234;6.804;2022-11-20T08:30:24;7.50;;;5.30;;
10711;SDS011;5407;51.234;6.804;2022-11-20T08:32:51;8.17;;;5.13;;
10711;SDS011;5407;51.234;6.804;2022-11-20T08:35:18;6.50;;;5.03;;
10711;SDS011;5407;51.234;6.804;2022-11-20T08:37:45;6.90;;;5.20;;
10711;SDS011;5407;51.234;6.804;2022-11-20T08:40:14;5.67;;;4.87;;
10711;SDS011;5407;51.234;6.804;2022-11-20T08:42:47;6.00;;;4.73;;
10711;SDS011;5407;51.234;6.804;2022-11-20T08:45:15;6.77;;;5.00;;
10711;SDS011;5407;51.234;6.804;2022-11-20T08:47:43;5.63;;;4.70;;
10711;SDS011;5407;51.234;6.804;2022-11-20T08:50:10;5.90;;;4.63;;
10711;SDS011;5407;51.234;6.804;2022-11-20T08:52:38;7.23;;;5.13;;
10711;SDS011;5407;51.234;6.804;2022-11-20T08:55:06;6.87;;;4.50;;
10711;SDS011;5407;51.234;6.804;2022-11-20T08:57:35;6.53;;;4.63;;
10711;SDS011;5407;51.234;6.804;2022-11-20T09:00:03;5.50;;;4.40;;
10711;SDS011;5407;51.234;6.804;2022-11-20T09:02:31;5.77;;;5.03;;
10711;SDS011;5407;51.234;6.804;2022-11-20T09:04:59;5.03;;;4.43;;
10711;SDS011;5407;51.234;6.804;2022-11-20T09:07:27;5.67;;;4.63;;
10711;SDS011;5407;51.234;6.804;2022-11-20T09:09:55;5.93;;;4.67;;
10711;SDS011;5407;51.234;6.804;2022-11-20T09:12:22;4.77;;;4.37;;
10711;SDS011;5407;51.234;6.804;2022-11-20T09:14:50;5.80;;;4.87;;
10711;SDS011;5407;51.234;6.804;2022-11-20T09:17:17;5.83;;;4.60;;
10711;SDS011;5407;51.234;6.804;2022-11-20T09:19:45;4.40;;;3.95;;
10711;SDS011;5407;51.234;6.804;2022-11-20T09:22:13;5.33;;;4.43;;
10711;SDS011;5407;51.234;6.804;2022-11-20T09:24:39;4.93;;;4.43;;
10711;SDS011;5407;51.234;6.804;2022-11-20T09:27:07;5.07;;;4.20;;
10711;SDS011;5407;51.234;6.804;2022-11-20T09:29:35;4.70;;;4.07;;
10711;SDS011;5407;51.234;6.804;2022-11-20T09:32:03;4.57;;;4.13;;
10711;SDS011;5407;51.234;6.804;2022-11-20T09:34:31;5.63;;;4.23;;
10711;SDS011;5407;51.234;6.804;2022-11-20T09:36:58;5.40;;;4.43;;
10711;SDS011;5407;51.234;6.804;2022-11-20T09:39:24;4.97;;;4.50;;
10711;SDS011;5407;51.234;6.804;2022-11-20T09:41:56;4.90;;;4.40;;
10711;SDS011;5407;51.234;6.804;2022-11-20T09:44:40;4.83;;;4.17;;
10711;SDS011;5407;51.234;6.804;2022-11-20T09:47:22;4.83;;;4.17;;
10711;SDS011;5407;51.234;6.804;2022-11-20T09:50:02;4.23;;;3.83;;
10711;SDS011;5407;51.234;6.804;2022-11-20T09:52:45;4.33;;;3.93;;
10711;SDS011;5407;51.234;6.804;2022-11-20T09:55:21;4.75;;;4.03;;
10711;SDS011;5407;51.234;6.804;2022-11-20T09:57:48;6.67;;;4.70;;
10711;SDS011;5407;51.234;6.804;2022-11-20T10:00:18;5.83;;;4.73;;
10711;SDS011;5407;51.234;6.804;2022-11-20T10:02:49;4.47;;;4.00;;
10711;SDS011;5407;51.234;6.804;2022-11-20T10:05:22;6.50;;;4.47;;
10711;SDS011;5407;51.234;6.804;2022-11-20T10:07:55;5.17;;;4.67;;
10711;SDS011;5407;51.234;6.804;2022-11-20T10:10:35;5.13;;;4.00;;
10711;SDS011;5407;51.234;6.804;2022-11-20T10:13:13;5.23;;;4.50;;
10711;SDS011;5407;51.234;6.804;2022-11-20T10:15:53;4.83;;;4.27;;
10711;SDS011;5407;51.234;6.804;2022-11-20T10:18:39;4.97;;;4.50;;
10711;SDS011;5407;51.234;6.804;2022-11-20T10:21:16;4.27;;;3.87;;
10711;SDS011;5407;51.234;6.804;2022-11-20T10:23:59;4.87;;;4.27;;
10711;SDS011;5407;51.234;6.804;2022-11-20T10:26:47;7.10;;;4.07;;
10711;SDS011;5407;51.234;6.804;2022-11-20T10:29:27;5.13;;;4.10;;
10711;SDS011;5407;51.234;6.804;2022-11-20T10:32:00;6.50;;;4.00;;
10711;SDS011;5407;51.234;6.804;2022-11-20T10:34:31;4.70;;;4.17;;
10711;SDS011;5407;51.234;6.804;2022-11-20T10:37:08;5.40;;;4.20;;
10711;SDS011;5407;51.234;6.804;2022-11-20T10:39:39;7.57;;;4.45;;
10711;SDS011;5407;51.234;6.804;2022-11-20T10:42:14;4.63;;;4.23;;
10711;SDS011;5407;51.234;6.804;2022-11-20T10:44:49;7.33;;;4.30;;
10711;SDS011;5407;51.234;6.804;2022-11-20T10:47:27;5.33;;;4.40;;
10711;SDS011;5407;51.234;6.804;2022-11-20T10:49:58;7.03;;;4.20;;
10711;SDS011;5407;51.234;6.804;2022-11-20T10:52:31;5.30;;;4.20;;
10711;SDS011;5407;51.234;6.804;2022-11-20T10:55:07;4.93;;;3.90;;
10711;SDS011;5407;51.234;6.804;2022-11-20T10:57:46;4.95;;;4.40;;
10711;SDS011;5407;51.234;6.804;2022-11-20T11:00:20;104.23;;;6.33;;
10711;SDS011;5407;51.234;6.804;2022-11-20T11:02:48;4.37;;;3.97;;
10711;SDS011;5407;51.234;6.804;2022-11-20T11:05:25;6.43;;;4.47;;
10711;SDS011;5407;51.234;6.804;2022-11-20T11:08:00;7.00;;;4.10;;
10711;SDS011;5407;51.234;6.804;2022-11-20T11:10:36;4.60;;;3.83;;
10711;SDS011;5407;51.234;6.804;2022-11-20T11:13:18;4.30;;;3.90;;
10711;SDS011;5407;51.234;6.804;2022-11-20T11:15:46;4.07;;;3.67;;
10711;SDS011;5407;51.234;6.804;2022-11-20T11:18:22;4.63;;;4.00;;
10711;SDS011;5407;51.234;6.804;2022-11-20T11:20:53;5.23;;;3.83;;
10711;SDS011;5407;51.234;6.804;2022-11-20T11:23:31;4.40;;;3.87;;
10711;SDS011;5407;51.234;6.804;2022-11-20T11:26:01;8.13;;;4.20;;
10711;SDS011;5407;51.234;6.804;2022-11-20T11:28:29;4.87;;;4.37;;
10711;SDS011;5407;51.234;6.804;2022-11-20T11:30:57;5.00;;;3.90;;
10711;SDS011;5407;51.234;6.804;2022-11-20T11:33:24;4.20;;;3.80;;
10711;SDS011;5407;51.234;6.804;2022-11-20T11:35:54;4.38;;;3.83;;
10711;SDS011;5407;51.234;6.804;2022-11-20T11:38:27;5.57;;;4.10;;
10711;SDS011;5407;51.234;6.804;2022-11-20T11:40:57;4.40;;;4.00;;
10711;SDS011;5407;51.234;6.804;2022-11-20T11:43:24;4.32;;;3.80;;
10711;SDS011;5407;51.234;6.804;2022-11-20T11:46:25;4.30;;;3.90;;
10711;SDS011;5407;51.234;6.804;2022-11-20T11:48:56;4.80;;;4.07;;
10711;SDS011;5407;51.234;6.804;2022-11-20T11:51:26;4.40;;;3.97;;
10711;SDS011;5407;51.234;6.804;2022-11-20T11:53:59;5.40;;;3.77;;
10711;SDS011;5407;51.234;6.804;2022-11-20T11:56:29;3.97;;;3.58;;
10711;SDS011;5407;51.234;6.804;2022-11-20T11:59:00;4.53;;;3.70;;
10711;SDS011;5407;51.234;6.804;2022-11-20T12:01:35;4.87;;;3.83;;
10711;SDS011;5407;51.234;6.804;2022-11-20T12:04:10;4.77;;;3.90;;
10711;SDS011;5407;51.234;6.804;2022-11-20T12:06:45;4.37;;;3.93;;
10711;SDS011;5407;51.234;6.804;2022-11-20T12:09:18;3.90;;;3.50;;
10711;SDS011;5407;51.234;6.804;2022-11-20T12:11:49;4.20;;;3.65;;
10711;SDS011;5407;51.234;6.804;2022-11-20T12:14:22;4.40;;;3.90;;
10711;SDS011;5407;51.234;6.804;2022-11-20T12:16:58;4.03;;;3.63;;
10711;SDS011;5407;51.234;6.804;2022-11-20T12:19:27;4.50;;;4.00;;
10711;SDS011;5407;51.234;6.804;2022-11-20T12:22:01;3.57;;;3.27;;
10711;SDS011;5407;51.234;6.804;2022-11-20T12:24:44;4.40;;;4.00;;
10711;SDS011;5407;51.234;6.804;2022-11-20T12:27:32;4.67;;;3.83;;
10711;SDS011;5407;51.234;6.804;2022-11-20T12:30:19;4.03;;;3.63;;
10711;SDS011;5407;51.234;6.804;2022-11-20T12:32:53;3.92;;;3.50;;
10711;SDS011;5407;51.234;6.804;2022-11-20T12:35:36;4.50;;;3.87;;
10711;SDS011;5407;51.234;6.804;2022-11-20T12:38:26;3.90;;;3.50;;
10711;SDS011;5407;51.234;6.804;2022-11-20T12:41:10;4.13;;;3.70;;
10711;SDS011;5407;51.234;6.804;2022-11-20T12:44:07;4.30;;;3.33;;
10711;SDS011;5407;51.234;6.804;2022-11-20T12:47:15;4.03;;;3.63;;
10711;SDS011;5407;51.234;6.804;2022-11-20T12:49:51;3.93;;;3.53;;
10711;SDS011;5407;51.234;6.804;2022-11-20T12:52:32;3.88;;;3.58;;
10711;SDS011;5407;51.234;6.804;2022-11-20T12:55:12;3.97;;;3.53;;
10711;SDS011;5407;51.234;6.804;2022-11-20T12:57:55;4.43;;;4.03;;
10711;SDS011;5407;51.234;6.804;2022-11-20T13:00:26;4.17;;;3.73;;
10711;SDS011;5407;51.234;6.804;2022-11-20T13:05:55;4.03;;;3.63;;
10711;SDS011;5407;51.234;6.804;2022-11-20T13:08:32;4.43;;;3.90;;
10711;SDS011;5407;51.234;6.804;2022-11-20T13:11:07;3.80;;;3.50;;
10711;SDS011;5407;51.234;6.804;2022-11-20T13:13:43;4.47;;;3.70;;
10711;SDS011;5407;51.234;6.804;2022-11-20T13:16:31;4.60;;;3.90;;
10711;SDS011;5407;51.234;6.804;2022-11-20T13:19:03;4.00;;;3.60;;
10711;SDS011;5407;51.234;6.804;2022-11-20T13:21:38;4.03;;;3.70;;
10711;SDS011;5407;51.234;6.804;2022-11-20T13:24:06;5.77;;;3.90;;
10711;SDS011;5407;51.234;6.804;2022-11-20T13:26:58;6.87;;;3.80;;
10711;SDS011;5407;51.234;6.804;2022-11-20T13:29:26;3.87;;;3.40;;
10711;SDS011;5407;51.234;6.804;2022-11-20T13:32:01;4.57;;;3.60;;
10711;SDS011;5407;51.234;6.804;2022-11-20T13:34:30;3.93;;;3.60;;
10711;SDS011;5407;51.234;6.804;2022-11-20T13:36:57;4.10;;;3.70;;
10711;SDS011;5407;51.234;6.804;2022-11-20T13:39:26;3.83;;;3.50;;
10711;SDS011;5407;51.234;6.804;2022-11-20T13:41:56;3.93;;;3.57;;
10711;SDS011;5407;51.234;6.804;2022-11-20T13:44:27;4.23;;;3.73;;
10711;SDS011;5407;51.234;6.804;2022-11-20T13:46:59;5.10;;;4.40;;
10711;SDS011;5407;51.234;6.804;2022-11-20T13:49:27;4.73;;;3.93;;
10711;SDS011;5407;51.234;6.804;2022-11-20T13:52:02;4.00;;;3.60;;
10711;SDS011;5407;51.234;6.804;2022-11-20T13:54:48;5.32;;;4.50;;
10711;SDS011;5407;51.234;6.804;2022-11-20T13:57:33;5.00;;;3.90;;
10711;SDS011;5407;51.234;6.804;2022-11-20T14:00:13;4.83;;;4.10;;
10711;SDS011;5407;51.234;6.804;2022-11-20T14:02:42;4.20;;;3.80;;
10711;SDS011;5407;51.234;6.804;2022-11-20T14:05:15;5.10;;;4.00;;
10711;SDS011;5407;51.234;6.804;2022-11-20T14:07:46;4.95;;;3.78;;
10711;SDS011;5407;51.234;6.804;2022-11-20T14:10:21;4.33;;;3.93;;
10711;SDS011;5407;51.234;6.804;2022-11-20T14:12:51;4.53;;;4.00;;
10711;SDS011;5407;51.234;6.804;2022-11-20T14:15:24;4.47;;;3.60;;
10711;SDS011;5407;51.234;6.804;2022-11-20T14:17:53;4.70;;;3.63;;
10711;SDS011;5407;51.234;6.804;2022-11-20T14:20:20;4.20;;;3.80;;
10711;SDS011;5407;51.234;6.804;2022-11-20T14:22:51;4.63;;;3.65;;
10711;SDS011;5407;51.234;6.804;2022-11-20T14:25:20;4.10;;;3.70;;
10711;SDS011;5407;51.234;6.804;2022-11-20T14:27:51;4.83;;;3.80;;
10711;SDS011;5407;51.234;6.804;2022-11-20T14:30:20;4.90;;;4.37;;
10711;SDS011;5407;51.234;6.804;2022-11-20T14:32:49;4.97;;;3.80;;
10711;SDS011;5407;51.234;6.804;2022-11-20T14:35:18;4.00;;;3.63;;
10711;SDS011;5407;51.234;6.804;2022-11-20T14:37:49;10.37;;;3.70;;
10711;SDS011;5407;51.234;6.804;2022-11-20T14:40:24;4.17;;;3.77;;
10711;SDS011;5407;51.234;6.804;2022-11-20T14:42:55;3.90;;;3.57;;
10711;SDS011;5407;51.234;6.804;2022-11-20T14:45:22;14.90;;;4.40;;
10711;SDS011;5407;51.234;6.804;2022-11-20T14:47:50;4.10;;;3.70;;
10711;SDS011;5407;51.234;6.804;2022-11-20T14:50:19;4.30;;;3.90;;
10711;SDS011;5407;51.234;6.804;2022-11-20T14:52:52;6.53;;;4.07;;
10711;SDS011;5407;51.234;6.804;2022-11-20T14:55:30;4.40;;;3.90;;
10711;SDS011;5407;51.234;6.804;2022-11-20T14:57:59;4.37;;;3.97;;
10711;SDS011;5407;51.234;6.804;2022-11-20T15:00:28;6.38;;;4.22;;
10711;SDS011;5407;51.234;6.804;2022-11-20T15:02:56;4.37;;;3.97;;
10711;SDS011;5407;51.234;6.804;2022-11-20T15:05:23;4.33;;;3.93;;
10711;SDS011;5407;51.234;6.804;2022-11-20T15:08:03;4.13;;;3.73;;
10711;SDS011;5407;51.234;6.804;2022-11-20T15:10:32;6.83;;;4.20;;
10711;SDS011;5407;51.234;6.804;2022-11-20T15:13:02;4.53;;;4.07;;
10711;SDS011;5407;51.234;6.804;2022-11-20T15:15:31;4.53;;;3.65;;
10711;SDS011;5407;51.234;6.804;2022-11-20T15:18:01;9.33;;;3.83;;
10711;SDS011;5407;51.234;6.804;2022-11-20T15:20:30;4.30;;;3.90;;
10711;SDS011;5407;51.234;6.804;2022-11-20T15:22:58;6.37;;;4.10;;
10711;SDS011;5407;51.234;6.804;2022-11-20T15:25:25;5.07;;;3.80;;
10711;SDS011;5407;51.234;6.804;2022-11-20T15:27:54;6.17;;;4.20;;